createdAt,value
2023-05-24T00:00:55.881Z,75.68
2023-05-24T00:03:25.076Z,75.77
2023-05-24T00:05:53.930Z,75.74
2023-05-24T00:08:22.672Z,76.43
2023-05-24T00:10:51.421Z,76.40
2023-05-24T00:13:20.386Z,76.37
2023-05-24T00:15:50.471Z,76.49
2023-05-24T00:18:19.233Z,76.29
2023-05-24T00:20:48.295Z,76.89
2023-05-24T00:23:17.511Z,78.00
2023-05-24T00:25:46.469Z,77.96
2023-05-24T00:28:15.290Z,77.82
2023-05-24T00:30:44.321Z,78.02
2023-05-24T00:33:14.694Z,77.67
2023-05-24T00:35:43.413Z,77.28
2023-05-24T00:38:12.184Z,77.16
2023-05-24T00:40:41.348Z,77.22
2023-05-24T00:43:10.325Z,76.86
2023-05-24T00:45:39.659Z,76.85
2023-05-24T00:48:09.243Z,76.64
2023-05-24T00:50:41.655Z,76.94
2023-05-24T00:53:12.531Z,77.05
2023-05-24T00:55:42.092Z,77.21
2023-05-24T00:58:10.991Z,77.47
2023-05-24T01:00:40.144Z,77.62
2023-05-24T01:03:10.433Z,77.43
2023-05-24T01:05:40.694Z,77.53
2023-05-24T01:08:22.901Z,77.68
2023-05-24T01:11:00.884Z,77.56
2023-05-24T01:13:42.532Z,77.89
2023-05-24T01:16:18.921Z,77.87
2023-05-24T01:18:55.533Z,78.59
2023-05-24T01:21:59.515Z,79.09
2023-05-24T01:24:43.031Z,78.87
2023-05-24T01:27:15.883Z,79.09
2023-05-24T01:29:44.831Z,79.14
2023-05-24T01:32:14.434Z,79.55
2023-05-24T01:34:43.685Z,79.33
2023-05-24T01:37:12.516Z,79.17
2023-05-24T01:39:42.829Z,79.49
2023-05-24T01:42:28.435Z,79.33
2023-05-24T01:45:07.863Z,80.05
2023-05-24T01:47:54.266Z,79.65
2023-05-24T01:50:29.814Z,79.16
2023-05-24T01:53:06.723Z,78.60
2023-05-24T01:55:38.947Z,78.14
2023-05-24T01:58:12.514Z,77.91
2023-05-24T02:00:46.377Z,77.46
2023-05-24T02:03:16.904Z,77.17
2023-05-24T02:05:47.390Z,76.75
2023-05-24T02:08:16.483Z,76.47
2023-05-24T02:10:45.310Z,75.81
2023-05-24T02:13:16.363Z,75.04
2023-05-24T02:15:47.800Z,74.88
2023-05-24T02:18:18.740Z,73.77
2023-05-24T02:21:07.584Z,72.95
2023-05-24T02:23:36.395Z,72.19
2023-05-24T02:26:05.329Z,71.82
2023-05-24T02:28:36.041Z,71.72
2023-05-24T02:31:06.331Z,71.30
2023-05-24T02:33:35.394Z,71.06
2023-05-24T02:36:05.702Z,70.69
2023-05-24T02:38:35.478Z,70.23
2023-05-24T02:41:04.288Z,69.33
2023-05-24T02:43:34.997Z,68.48
2023-05-24T02:46:04.254Z,68.39
2023-05-24T02:48:33.025Z,67.93
2023-05-24T02:51:03.388Z,67.72
2023-05-24T02:53:32.659Z,67.50
2023-05-24T02:56:01.753Z,67.06
2023-05-24T02:58:41.242Z,66.51
2023-05-24T03:01:10.379Z,66.25
2023-05-24T03:03:39.276Z,65.78
2023-05-24T03:06:08.697Z,65.30
2023-05-24T03:08:38.119Z,65.37
2023-05-24T03:11:07.450Z,64.89
2023-05-24T03:13:38.562Z,64.63
2023-05-24T03:16:08.285Z,64.43
2023-05-24T03:18:37.186Z,64.20
2023-05-24T03:21:07.803Z,64.11
2023-05-24T03:23:36.717Z,64.28
2023-05-24T03:26:15.700Z,64.17
2023-05-24T03:28:54.467Z,64.29
2023-05-24T03:31:29.477Z,64.45
2023-05-24T03:34:01.986Z,64.93
2023-05-24T03:36:32.867Z,65.93
2023-05-24T03:39:03.908Z,66.39
2023-05-24T03:41:38.286Z,66.62
2023-05-24T03:44:10.908Z,66.92
2023-05-24T03:46:40.011Z,67.30
2023-05-24T03:49:09.757Z,67.31
2023-05-24T03:51:39.832Z,67.71
2023-05-24T03:54:10.587Z,67.66
2023-05-24T03:56:39.556Z,68.29
2023-05-24T03:59:09.815Z,68.22
2023-05-24T04:01:38.605Z,69.10
2023-05-24T04:04:07.743Z,69.02
2023-05-24T04:06:38.313Z,69.09
2023-05-24T04:09:07.463Z,69.93
2023-05-24T04:11:45.514Z,70.09
2023-05-24T04:14:17.346Z,70.21
2023-05-24T04:16:48.537Z,70.46
2023-05-24T04:19:17.599Z,70.60
2023-05-24T04:21:47.199Z,70.72
2023-05-24T04:24:16.515Z,70.42
2023-05-24T04:26:47.813Z,70.94
2023-05-24T04:29:25.060Z,71.66
2023-05-24T04:31:57.060Z,70.69
2023-05-24T04:34:33.879Z,70.55
2023-05-24T04:37:03.750Z,70.55
2023-05-24T04:39:32.567Z,70.34
2023-05-24T04:42:01.765Z,70.42
2023-05-24T04:44:33.256Z,70.21
2023-05-24T04:47:04.038Z,69.59
2023-05-24T04:49:32.872Z,69.10
2023-05-24T04:52:01.605Z,69.47
2023-05-24T04:54:30.581Z,69.16
2023-05-24T04:56:59.511Z,69.26
2023-05-24T04:59:28.232Z,68.85
2023-05-24T05:01:58.453Z,68.45
2023-05-24T05:04:27.372Z,69.25
2023-05-24T05:06:58.017Z,69.32
2023-05-24T05:09:28.264Z,69.08
2023-05-24T05:11:57.112Z,69.04
2023-05-24T05:14:26.073Z,68.98
2023-05-24T05:16:54.937Z,69.04
2023-05-24T05:19:25.389Z,68.65
2023-05-24T05:21:54.171Z,68.45
2023-05-24T05:24:23.059Z,68.09
2023-05-24T05:26:51.828Z,68.10
2023-05-24T05:29:24.212Z,67.95
2023-05-24T05:31:53.371Z,67.87
2023-05-24T05:34:22.245Z,66.87
2023-05-24T05:36:52.705Z,67.44
2023-05-24T05:39:21.542Z,67.15
2023-05-24T05:41:50.380Z,67.93
2023-05-24T05:44:21.233Z,68.29
2023-05-24T05:46:53.162Z,68.67
2023-05-24T05:49:22.155Z,67.99
2023-05-24T05:51:56.185Z,68.45
2023-05-24T05:54:31.264Z,68.26
2023-05-24T05:57:03.391Z,68.13
2023-05-24T05:59:36.032Z,66.99
2023-05-24T06:02:06.109Z,66.53
2023-05-24T06:04:39.964Z,66.05
2023-05-24T06:07:13.458Z,65.70
2023-05-24T06:09:42.467Z,66.28
2023-05-24T06:12:11.450Z,66.52
2023-05-24T06:14:43.611Z,65.91
2023-05-24T06:17:12.831Z,65.20
2023-05-24T06:19:44.750Z,65.01
2023-05-24T06:22:16.550Z,64.86
2023-05-24T06:24:45.776Z,64.59
2023-05-24T06:27:14.726Z,63.96
2023-05-24T06:29:46.229Z,63.85
2023-05-24T06:32:16.484Z,63.41
2023-05-24T06:34:45.331Z,63.72
2023-05-24T06:37:16.382Z,64.00
2023-05-24T06:39:45.124Z,63.80
2023-05-24T06:42:13.876Z,62.45
2023-05-24T06:44:47.786Z,62.88
2023-05-24T06:47:17.744Z,61.95
2023-05-24T06:49:49.050Z,62.63
2023-05-24T06:52:19.348Z,62.86
2023-05-24T06:54:52.223Z,62.43
2023-05-24T06:57:21.272Z,62.79
2023-05-24T06:59:51.235Z,62.18
2023-05-24T07:02:27.507Z,61.12
2023-05-24T07:04:57.418Z,60.82
2023-05-24T07:07:29.865Z,61.79
2023-05-24T07:10:00.261Z,62.03
2023-05-24T07:12:29.067Z,62.64
2023-05-24T07:14:57.723Z,61.51
2023-05-24T07:17:29.617Z,61.94
2023-05-24T07:20:01.983Z,62.57
2023-05-24T07:22:37.556Z,62.33
2023-05-24T07:25:10.043Z,61.18
2023-05-24T07:27:40.055Z,61.14
2023-05-24T07:30:23.713Z,61.37
2023-05-24T07:33:16.752Z,60.31
2023-05-24T07:35:52.309Z,60.97
2023-05-24T07:38:24.635Z,61.64
2023-05-24T07:40:54.536Z,61.09
2023-05-24T07:43:25.667Z,60.13
2023-05-24T07:46:10.822Z,60.38
2023-05-24T07:48:41.347Z,59.84
2023-05-24T07:51:10.583Z,59.69
2023-05-24T07:53:46.263Z,58.73
2023-05-24T07:56:30.922Z,57.45
2023-05-24T07:59:14.479Z,58.30
2023-05-24T08:01:49.467Z,58.54
2023-05-24T08:04:19.823Z,57.28
2023-05-24T08:06:49.625Z,56.96
2023-05-24T08:09:30.931Z,56.96
2023-05-24T08:12:17.151Z,57.47
2023-05-24T08:14:56.508Z,57.21
2023-05-24T08:17:26.864Z,57.52
2023-05-24T08:20:22.330Z,57.60
2023-05-24T08:22:54.061Z,57.52
2023-05-24T08:25:39.426Z,57.04
2023-05-24T08:28:15.311Z,55.08
2023-05-24T08:30:59.722Z,54.80
2023-05-24T08:33:39.069Z,54.03
2023-05-24T08:36:15.460Z,54.92
2023-05-24T08:38:52.770Z,54.35
2023-05-24T08:41:44.507Z,53.75
2023-05-24T08:44:18.913Z,52.77
2023-05-24T08:46:57.320Z,53.15
2023-05-24T08:49:33.798Z,52.81
2023-05-24T08:52:26.325Z,53.04
2023-05-24T08:54:59.162Z,53.01
2023-05-24T08:57:30.936Z,52.92
2023-05-24T09:00:00.428Z,51.68
2023-05-24T09:02:32.408Z,50.80
2023-05-24T09:05:24.464Z,50.19
2023-05-24T09:07:58.555Z,49.67
2023-05-24T09:10:49.517Z,49.32
2023-05-24T09:13:39.701Z,47.65
2023-05-24T09:16:18.872Z,48.22
2023-05-24T09:18:54.842Z,47.61
2023-05-24T09:21:28.507Z,47.57
2023-05-24T09:24:00.150Z,47.58
2023-05-24T09:26:34.703Z,46.86
2023-05-24T09:29:13.297Z,46.85
2023-05-24T09:31:42.775Z,46.18
2023-05-24T09:34:18.521Z,45.97
2023-05-24T09:36:58.084Z,46.83
2023-05-24T09:39:27.427Z,46.44
2023-05-24T09:42:04.656Z,46.33
2023-05-24T09:44:52.621Z,45.85
2023-05-24T09:47:31.549Z,46.68
2023-05-24T09:50:03.251Z,45.44
2023-05-24T09:52:46.447Z,45.27
2023-05-24T09:55:18.922Z,46.00
2023-05-24T09:58:06.946Z,44.02
2023-05-24T10:00:47.898Z,43.46
2023-05-24T10:03:19.287Z,43.81
2023-05-24T10:05:56.988Z,43.49
2023-05-24T10:08:33.513Z,44.20
2023-05-24T10:11:08.740Z,44.17
2023-05-24T10:13:48.945Z,44.72
2023-05-24T10:16:31.604Z,44.56
2023-05-24T10:19:03.355Z,43.67
2023-05-24T10:21:34.121Z,43.89
2023-05-24T10:24:12.456Z,43.63
2023-05-24T10:26:47.558Z,42.75
2023-05-24T10:29:33.524Z,43.14
2023-05-24T10:32:14.994Z,43.18
2023-05-24T10:34:53.734Z,44.18
2023-05-24T10:37:31.897Z,43.52
2023-05-24T10:40:05.473Z,43.67
2023-05-24T10:42:34.605Z,43.07
2023-05-24T10:45:35.815Z,42.09
2023-05-24T10:49:00.617Z,43.76
2023-05-24T10:51:42.330Z,43.01
2023-05-24T10:54:21.676Z,42.20
2023-05-24T10:56:58.942Z,42.25
2023-05-24T10:59:51.617Z,42.29
2023-05-24T11:02:45.980Z,42.27
2023-05-24T11:05:56.746Z,41.83
2023-05-24T11:09:18.381Z,42.26
2023-05-24T11:15:59.872Z,41.73
2023-05-24T11:18:28.623Z,41.87
2023-05-24T11:21:03.978Z,42.53
2023-05-24T11:23:35.421Z,41.45
2023-05-24T11:26:14.513Z,41.30
2023-05-24T11:28:44.666Z,41.60
2023-05-24T11:31:13.607Z,42.03
2023-05-24T11:33:43.815Z,41.19
2023-05-24T11:36:17.943Z,41.65
2023-05-24T11:38:50.555Z,41.46
2023-05-24T11:41:21.158Z,42.32
2023-05-24T11:43:52.928Z,41.95
2023-05-24T11:46:22.350Z,41.57
2023-05-24T11:48:58.359Z,40.58
2023-05-24T11:51:33.195Z,40.92
2023-05-24T11:54:02.474Z,39.93
2023-05-24T11:56:34.108Z,40.36
2023-05-24T11:59:16.796Z,41.14
2023-05-24T12:01:46.237Z,41.09
2023-05-24T12:04:16.415Z,41.20
2023-05-24T12:06:46.551Z,41.01
2023-05-24T12:09:18.136Z,41.21
2023-05-24T12:11:50.811Z,40.58
2023-05-24T12:14:22.764Z,41.04
2023-05-24T12:16:51.951Z,40.21
2023-05-24T12:19:33.170Z,40.17
2023-05-24T12:22:08.206Z,40.11
2023-05-24T12:24:38.998Z,40.15
2023-05-24T12:27:09.148Z,40.69
2023-05-24T12:29:40.448Z,39.82
2023-05-24T12:32:14.268Z,40.44
2023-05-24T12:34:45.091Z,40.78
2023-05-24T12:37:16.840Z,40.69
2023-05-24T12:39:45.691Z,38.85
2023-05-24T12:42:14.569Z,39.03
2023-05-24T12:44:45.145Z,39.72
2023-05-24T12:47:14.501Z,39.69
2023-05-24T12:49:44.593Z,39.74
2023-05-24T12:52:14.932Z,38.75
2023-05-24T12:54:43.592Z,39.07
2023-05-24T12:57:12.570Z,38.68
2023-05-24T12:59:41.998Z,39.09
2023-05-24T13:02:10.813Z,38.91
2023-05-24T13:04:39.476Z,38.66
2023-05-24T13:07:08.313Z,37.90
2023-05-24T13:09:38.548Z,38.48
2023-05-24T13:12:08.994Z,38.64
2023-05-24T13:14:38.207Z,38.67
2023-05-24T13:17:07.952Z,39.53
2023-05-24T13:19:36.890Z,38.70
2023-05-24T13:22:05.657Z,38.51
2023-05-24T13:24:34.367Z,38.76
2023-05-24T13:27:05.021Z,40.20
2023-05-24T13:29:42.285Z,40.51
2023-05-24T13:32:14.438Z,38.94
2023-05-24T13:34:43.426Z,39.60
2023-05-24T13:37:12.348Z,38.82
2023-05-24T13:39:41.287Z,38.23
2023-05-24T13:42:11.829Z,38.81
2023-05-24T13:44:40.761Z,38.86
2023-05-24T13:47:09.932Z,38.85
2023-05-24T13:49:39.089Z,39.71
2023-05-24T13:52:07.861Z,40.13
2023-05-24T13:54:36.705Z,39.37
2023-05-24T13:57:06.694Z,38.78
2023-05-24T13:59:36.866Z,38.89
2023-05-24T14:02:06.257Z,38.78
2023-05-24T14:04:35.621Z,39.01
2023-05-24T14:07:05.527Z,38.82
2023-05-24T14:09:34.227Z,38.77
2023-05-24T14:12:03.512Z,38.83
2023-05-24T14:17:05.562Z,38.09
2023-05-24T14:19:34.972Z,37.16
2023-05-24T14:22:03.670Z,37.36
2023-05-24T14:24:32.349Z,36.94
2023-05-24T14:27:01.631Z,37.07
2023-05-24T14:29:30.407Z,37.28
2023-05-24T14:31:59.208Z,36.16
2023-05-24T14:34:29.427Z,35.58
2023-05-24T14:36:58.167Z,34.90
2023-05-24T14:39:26.880Z,34.71
2023-05-24T14:41:55.569Z,35.40
2023-05-24T14:44:24.445Z,35.49
2023-05-24T14:46:55.259Z,35.88
2023-05-24T14:49:24.355Z,36.03
2023-05-24T14:51:54.487Z,35.73
2023-05-24T14:54:23.257Z,35.12
2023-05-24T14:56:51.962Z,35.18
2023-05-24T14:59:20.804Z,35.33
2023-05-24T15:01:49.759Z,35.28
2023-05-24T15:04:18.577Z,34.92
2023-05-24T15:06:47.323Z,34.80
2023-05-24T15:09:17.878Z,36.00
2023-05-24T15:11:46.659Z,36.42
2023-05-24T15:14:16.133Z,36.29
2023-05-24T15:16:44.874Z,36.08
2023-05-24T15:19:13.963Z,36.74
2023-05-24T15:21:42.679Z,36.43
2023-05-24T15:24:11.344Z,36.11
2023-05-24T15:26:42.441Z,35.56
2023-05-24T15:29:11.251Z,35.88
2023-05-24T15:31:40.036Z,35.85
2023-05-24T15:34:08.904Z,35.34
2023-05-24T15:36:37.869Z,35.81
2023-05-24T15:39:07.046Z,35.95
2023-05-24T15:41:37.831Z,35.89
2023-05-24T15:44:08.982Z,36.11
2023-05-24T15:46:37.990Z,35.69
2023-05-24T15:49:06.736Z,35.24
2023-05-24T15:54:08.432Z,36.02
2023-05-24T15:56:37.789Z,35.71
2023-05-24T15:59:08.394Z,36.10
2023-05-24T16:01:39.574Z,35.96
2023-05-24T16:04:08.559Z,35.71
2023-05-24T16:06:38.268Z,35.86
2023-05-24T16:09:08.210Z,35.99
2023-05-24T16:11:36.940Z,36.11
2023-05-24T16:14:07.059Z,35.86
2023-05-24T16:16:36.541Z,35.65
2023-05-24T16:19:05.358Z,35.51
2023-05-24T16:21:34.070Z,35.64
2023-05-24T16:24:03.467Z,35.12
2023-05-24T16:26:32.494Z,34.83
2023-05-24T16:29:01.854Z,34.52
2023-05-24T16:31:33.345Z,33.29
2023-05-24T16:34:02.246Z,33.50
2023-05-24T16:36:33.053Z,34.01
2023-05-24T16:39:01.890Z,33.86
2023-05-24T16:41:37.467Z,33.86
2023-05-24T16:44:09.027Z,33.80
2023-05-24T16:46:39.321Z,33.68
2023-05-24T16:49:08.235Z,33.54
2023-05-24T16:51:36.914Z,33.57
2023-05-24T16:54:09.025Z,33.29
2023-05-24T16:56:39.932Z,33.40
2023-05-24T16:59:13.063Z,33.24
2023-05-24T17:01:45.189Z,33.43
2023-05-24T17:04:18.352Z,33.30
2023-05-24T17:06:56.027Z,33.17
2023-05-24T17:09:58.017Z,32.57
2023-05-24T17:12:27.534Z,33.14
2023-05-24T17:14:57.074Z,33.44
2023-05-24T17:17:29.575Z,33.55
2023-05-24T17:20:05.450Z,33.96
2023-05-24T17:22:35.239Z,34.37
2023-05-24T17:25:25.036Z,34.74
2023-05-24T17:28:16.418Z,35.05
2023-05-24T17:30:47.434Z,35.56
2023-05-24T17:33:17.573Z,35.70
2023-05-24T17:35:47.269Z,35.89
2023-05-24T17:38:16.078Z,36.16
2023-05-24T17:40:46.963Z,36.43
2023-05-24T17:43:15.846Z,36.67
2023-05-24T17:45:44.987Z,36.59
2023-05-24T17:48:13.958Z,36.91
2023-05-24T17:50:44.043Z,37.57
2023-05-24T17:53:29.951Z,37.85
2023-05-24T17:56:04.326Z,37.83
2023-05-24T17:58:36.537Z,38.08
2023-05-24T18:01:07.790Z,38.68
2023-05-24T18:03:38.641Z,39.37
2023-05-24T18:06:10.065Z,40.10
2023-05-24T18:08:43.431Z,41.01
2023-05-24T18:11:13.476Z,42.12
2023-05-24T18:13:44.183Z,42.62
2023-05-24T18:16:13.668Z,43.16
2023-05-24T18:18:44.002Z,43.18
2023-05-24T18:21:15.365Z,43.47
2023-05-24T18:23:44.976Z,43.99
2023-05-24T18:26:16.844Z,44.61
2023-05-24T18:28:47.356Z,45.42
2023-05-24T18:31:20.792Z,46.30
2023-05-24T18:34:09.586Z,46.75
2023-05-24T18:36:40.765Z,47.02
2023-05-24T18:39:10.083Z,47.00
2023-05-24T18:41:40.299Z,47.23
2023-05-24T18:44:15.097Z,47.55
2023-05-24T18:46:54.021Z,47.06
2023-05-24T18:49:24.922Z,49.04
2023-05-24T18:52:05.069Z,49.75
2023-05-24T18:54:33.847Z,50.25
2023-05-24T18:57:07.772Z,50.64
2023-05-24T18:59:46.687Z,50.86
2023-05-24T19:02:17.441Z,50.70
2023-05-24T19:04:48.433Z,50.59
2023-05-24T19:07:20.008Z,50.76
2023-05-24T19:09:49.044Z,50.76
2023-05-24T19:12:21.548Z,50.71
2023-05-24T19:14:59.571Z,50.29
2023-05-24T19:17:28.372Z,50.10
2023-05-24T19:19:59.231Z,50.10
2023-05-24T19:22:29.470Z,50.13
2023-05-24T19:24:58.630Z,50.49
2023-05-24T19:27:28.455Z,51.26
2023-05-24T19:30:00.613Z,51.25
2023-05-24T19:32:38.744Z,51.48
2023-05-24T19:35:11.843Z,52.04
2023-05-24T19:37:43.612Z,52.38
2023-05-24T19:40:15.739Z,52.80
2023-05-24T19:42:48.711Z,53.60
2023-05-24T19:45:23.352Z,54.32
2023-05-24T19:47:52.458Z,55.24
2023-05-24T19:50:24.356Z,55.01
2023-05-24T19:53:00.250Z,55.47
2023-05-24T19:55:36.739Z,55.64
2023-05-24T19:58:05.512Z,55.98
2023-05-24T20:00:34.459Z,56.11
2023-05-24T20:03:03.373Z,56.95
2023-05-24T20:05:32.221Z,57.29
2023-05-24T20:08:02.457Z,58.22
2023-05-24T20:10:32.118Z,57.99
2023-05-24T20:13:00.942Z,58.42
2023-05-24T20:15:29.864Z,58.34
2023-05-24T20:17:59.185Z,58.37
2023-05-24T20:20:27.954Z,58.47
2023-05-24T20:22:56.902Z,59.15
2023-05-24T20:25:28.950Z,58.67
2023-05-24T20:27:57.894Z,59.01
2023-05-24T20:30:27.025Z,59.46
2023-05-24T20:32:55.951Z,59.18
2023-05-24T20:35:24.700Z,59.22
2023-05-24T20:37:53.393Z,60.00
2023-05-24T20:40:25.096Z,60.04
2023-05-24T20:42:55.507Z,60.54
2023-05-24T20:45:24.440Z,60.09
2023-05-24T20:47:53.198Z,60.04
2023-05-24T20:50:22.276Z,60.09
2023-05-24T20:52:50.963Z,59.23
2023-05-24T20:55:20.042Z,59.28
2023-05-24T20:57:50.069Z,59.57
2023-05-24T21:00:20.762Z,59.41
2023-05-24T21:02:49.877Z,59.56
2023-05-24T21:05:19.162Z,59.94
2023-05-24T21:07:48.408Z,60.47
2023-05-24T21:10:19.914Z,61.17
2023-05-24T21:12:50.329Z,61.02
2023-05-24T21:15:20.448Z,60.95
2023-05-24T21:17:49.231Z,60.62
2023-05-24T21:20:18.041Z,61.03
2023-05-24T21:22:46.791Z,61.27
2023-05-24T21:25:15.725Z,61.34
2023-05-24T21:27:44.510Z,62.02
2023-05-24T21:30:14.990Z,62.09
2023-05-24T21:32:45.146Z,62.52
2023-05-24T21:35:13.917Z,63.05
2023-05-24T21:37:42.657Z,63.38
2023-05-24T21:40:12.724Z,63.64
2023-05-24T21:42:41.478Z,64.01
2023-05-24T21:45:11.221Z,64.76
2023-05-24T21:47:40.099Z,64.92
2023-05-24T21:50:11.165Z,65.07
2023-05-24T21:52:39.902Z,64.91
2023-05-24T21:55:10.091Z,65.27
2023-05-24T21:57:38.909Z,66.03
2023-05-24T22:00:09.502Z,66.16
2023-05-24T22:02:38.271Z,66.39
2023-05-24T22:05:08.155Z,66.31
2023-05-24T22:07:38.342Z,66.65
2023-05-24T22:10:08.768Z,66.90
2023-05-24T22:12:37.466Z,66.19
2023-05-24T22:15:08.710Z,66.63
2023-05-24T22:17:41.154Z,67.25
2023-05-24T22:20:11.929Z,67.55
2023-05-24T22:22:48.906Z,67.28
2023-05-24T22:25:19.706Z,68.41
2023-05-24T22:27:50.057Z,68.37
2023-05-24T22:30:19.635Z,69.13
2023-05-24T22:32:48.607Z,68.13
2023-05-24T22:35:17.761Z,68.56
2023-05-24T22:37:47.897Z,69.08
2023-05-24T22:40:16.897Z,69.16
2023-05-24T22:42:45.794Z,71.00
2023-05-24T22:45:15.249Z,70.88
2023-05-24T22:47:43.989Z,70.84
2023-05-24T22:50:12.779Z,71.60
2023-05-24T22:52:42.759Z,71.64
2023-05-24T22:55:12.895Z,72.42
2023-05-24T22:57:41.687Z,72.16
2023-05-24T23:00:12.191Z,72.59
2023-05-24T23:02:40.974Z,71.55
2023-05-24T23:05:11.574Z,71.80
2023-05-24T23:07:40.460Z,72.03
2023-05-24T23:10:10.336Z,72.15
2023-05-24T23:12:42.434Z,72.02
2023-05-24T23:15:18.236Z,72.17
2023-05-24T23:17:48.262Z,73.44
2023-05-24T23:20:17.101Z,72.71
2023-05-24T23:22:46.968Z,74.60
2023-05-24T23:25:15.966Z,74.09
2023-05-24T23:27:47.390Z,75.20
2023-05-24T23:30:17.593Z,75.11
2023-05-24T23:32:46.367Z,75.05
2023-05-24T23:35:15.289Z,75.08
2023-05-24T23:37:44.093Z,75.56
2023-05-24T23:40:14.012Z,76.36
2023-05-24T23:42:42.796Z,76.86
2023-05-24T23:45:15.294Z,77.02
2023-05-24T23:47:44.129Z,76.83
2023-05-24T23:50:17.344Z,77.01
2023-05-24T23:52:47.308Z,77.28
2023-05-24T23:55:16.180Z,77.45
2023-05-24T23:57:45.919Z,77.76
